Time;durP1;ratioP1;P1;durP2;ratioP2;P2;SDS_P1;SDS_P2;PMS_P1;PMS_P2;Temp;Humidity;BMP_temperature;BMP_pressure;BME280_temperature;BME280_humidity;BME280_pressure;Samples;Min_cycle;Max_cycle;Signal;HPM_P1;HPM_P2
2021/03/27 00:01:09;;;;;;;0.68;0.30;;;23.60;29.20;;;;;;5052575;28;20040;-59
2021/03/27 00:03:39;;;;;;;0.68;0.40;;;23.60;29.20;;;;;;5050601;28;20451;-58
2021/03/27 00:06:14;;;;;;;0.30;0.25;;;23.50;29.20;;;;;;5052824;28;20036;-60
2021/03/27 00:08:43;;;;;;;0.32;0.32;;;23.50;29.10;;;;;;5062544;28;20155;-58
2021/03/27 00:11:15;;;;;;;0.55;0.50;;;23.50;29.10;;;;;;5052790;28;20033;-59
2021/03/27 00:14:01;;;;;;;0.20;0.20;;;23.50;29.10;;;;;;5052328;28;20021;-58
2021/03/27 00:16:31;;;;;;;0.57;0.30;;;23.50;29.10;;;;;;5050977;28;20029;-59
2021/03/27 00:19:09;;;;;;;0.50;0.30;;;23.50;29.10;;;;;;5051781;28;20033;-60
2021/03/27 00:21:55;;;;;;;0.52;0.38;;;23.50;29.10;;;;;;5053129;28;20037;-60
2021/03/27 00:24:31;;;;;;;0.55;0.30;;;23.50;29.10;;;;;;5052287;28;20470;-57
2021/03/27 00:27:14;;;;;;;1.02;0.40;;;23.50;29.10;;;;;;5050495;28;20028;-59
2021/03/27 00:29:46;;;;;;;0.47;0.30;;;23.50;29.20;;;;;;5052715;28;20040;-57
2021/03/27 00:32:24;;;;;;;0.50;0.40;;;23.50;29.10;;;;;;5051355;28;20518;-56
2021/03/27 00:35:00;;;;;;;0.30;0.30;;;23.50;29.10;;;;;;5051613;28;20460;-57
2021/03/27 00:37:27;;;;;;;0.60;0.28;;;23.50;29.10;;;;;;5052682;28;20021;-57
2021/03/27 00:40:05;;;;;;;0.57;0.30;;;23.50;29.10;;;;;;5052502;28;20059;-55
2021/03/27 00:42:37;;;;;;;0.85;0.30;;;23.50;29.10;;;;;;5052297;28;20112;-59
2021/03/27 00:45:14;;;;;;;0.30;0.20;;;23.50;29.10;;;;;;5052094;28;20029;-61
2021/03/27 00:47:54;;;;;;;0.25;0.10;;;23.50;29.10;;;;;;5049947;28;20406;-58
2021/03/27 00:50:29;;;;;;;0.30;0.30;;;23.50;29.10;;;;;;5051993;28;20025;-60
2021/03/27 00:53:01;;;;;;;0.35;0.30;;;23.40;29.10;;;;;;5066520;28;20025;-60
2021/03/27 00:55:53;;;;;;;0.40;0.25;;;23.40;29.10;;;;;;5048256;28;20017;-56
2021/03/27 00:58:56;;;;;;;0.40;0.20;;;23.50;29.10;;;;;;5051064;28;20128;-57
2021/03/27 01:01:26;;;;;;;0.38;0.20;;;23.40;29.10;;;;;;5049508;28;20048;-54
2021/03/27 01:04:28;;;;;;;0.28;0.20;;;23.40;29.20;;;;;;5006001;28;20036;-60
2021/03/27 01:07:14;;;;;;;0.40;0.10;;;23.40;29.10;;;;;;5048294;28;20126;-55
2021/03/27 01:10:08;;;;;;;0.30;0.20;;;23.40;29.10;;;;;;5053678;28;20048;-58
2021/03/27 01:12:54;;;;;;;0.85;0.20;;;23.40;29.10;;;;;;5054490;28;20060;-58
2021/03/27 01:15:42;;;;;;;0.80;0.30;;;23.40;29.20;;;;;;5049334;28;20040;-59
2021/03/27 01:18:30;;;;;;;0.30;0.20;;;23.40;29.10;;;;;;5051558;28;20037;-58
2021/03/27 01:21:01;;;;;;;0.20;0.20;;;23.40;29.10;;;;;;5053387;28;20037;-59
2021/03/27 01:23:28;;;;;;;0.80;0.20;;;23.40;29.20;;;;;;5053254;28;20057;-57
2021/03/27 01:26:04;;;;;;;0.52;0.25;;;23.40;29.20;;;;;;5053515;28;20036;-54
2021/03/27 01:28:38;;;;;;;0.20;0.20;;;23.40;29.20;;;;;;5052886;28;20099;-56
2021/03/27 01:31:19;;;;;;;0.20;0.20;;;23.40;29.20;;;;;;5056207;28;20432;-58
2021/03/27 01:34:22;;;;;;;0.50;0.28;;;23.40;29.20;;;;;;5056397;28;20519;-59
2021/03/27 01:37:10;;;;;;;0.55;0.15;;;23.30;29.20;;;;;;5051494;28;20318;-57
2021/03/27 01:40:28;;;;;;;0.28;0.20;;;23.30;29.20;;;;;;5056909;28;20392;-54
2021/03/27 01:43:12;;;;;;;0.95;0.20;;;23.30;29.20;;;;;;5007689;28;20049;-59
2021/03/27 01:46:08;;;;;;;0.32;0.20;;;23.30;29.30;;;;;;5053328;28;20029;-55
2021/03/27 01:48:41;;;;;;;0.28;0.25;;;23.30;29.30;;;;;;5057295;28;20112;-56
2021/03/27 01:51:23;;;;;;;0.40;0.30;;;23.30;29.30;;;;;;5055823;28;20044;-59
2021/03/27 01:53:58;;;;;;;0.93;0.35;;;23.30;29.30;;;;;;5057074;28;20112;-57
2021/03/27 01:56:37;;;;;;;0.63;0.30;;;23.30;29.30;;;;;;5057257;28;20087;-58
2021/03/27 01:59:03;;;;;;;0.43;0.22;;;23.30;29.30;;;;;;5054557;28;20033;-56
2021/03/27 02:01:35;;;;;;;0.20;0.20;;;23.30;29.30;;;;;;5055867;28;20328;-58
2021/03/27 02:04:39;;;;;;;0.98;0.30;;;23.30;29.40;;;;;;5056796;28;20029;-55
2021/03/27 02:07:40;;;;;;;0.40;0.30;;;23.30;29.40;;;;;;5044236;28;20040;-58
2021/03/27 02:10:27;;;;;;;0.88;0.50;;;23.30;29.40;;;;;;5052176;28;20411;-59
2021/03/27 02:13:06;;;;;;;1.02;0.50;;;23.30;29.40;;;;;;5055934;28;20025;-59
2021/03/27 02:15:37;;;;;;;0.65;0.40;;;23.30;29.40;;;;;;5056540;28;20025;-56
2021/03/27 02:18:18;;;;;;;0.60;0.28;;;23.20;29.40;;;;;;5055761;28;20040;-59
2021/03/27 02:20:59;;;;;;;0.40;0.22;;;23.20;29.40;;;;;;5052071;28;20032;-58
2021/03/27 02:23:48;;;;;;;1.27;0.57;;;23.20;29.40;;;;;;5055346;28;20087;-57
2021/03/27 02:26:50;;;;;;;0.80;0.35;;;23.20;29.40;;;;;;5056017;28;20510;-59
2021/03/27 02:29:29;;;;;;;0.68;0.40;;;23.20;29.40;;;;;;5056569;28;20032;-56
2021/03/27 02:32:11;;;;;;;0.38;0.30;;;23.20;29.90;;;;;;5056355;28;20029;-54
2021/03/27 02:34:46;;;;;;;0.90;0.45;;;23.20;29.40;;;;;;5055830;28;20048;-58
2021/03/27 02:37:37;;;;;;;0.93;0.40;;;23.20;29.50;;;;;;5055025;28;20602;-59
2021/03/27 02:40:12;;;;;;;1.23;0.47;;;23.20;29.40;;;;;;5055957;28;20445;-59
2021/03/27 02:42:49;;;;;;;;;;;23.10;29.40;;;;;;5052501;28;20044;-59
2021/03/27 02:45:25;;;;;;;0.52;0.30;;;23.10;29.40;;;;;;5054112;28;19942;-58
2021/03/27 02:48:13;;;;;;;0.68;0.40;;;23.10;29.40;;;;;;5056057;28;20045;-57
2021/03/27 02:50:51;;;;;;;0.55;0.45;;;23.10;29.30;;;;;;5055555;28;20297;-59
2021/03/27 02:53:35;;;;;;;0.70;0.40;;;23.10;29.40;;;;;;5055636;28;20479;-58
2021/03/27 02:56:29;;;;;;;0.45;0.40;;;23.10;29.40;;;;;;5055514;28;20032;-61
2021/03/27 02:59:33;;;;;;;1.35;0.50;;;23.10;29.40;;;;;;5056120;28;20061;-56
2021/03/27 03:02:22;;;;;;;0.93;0.52;;;23.10;29.40;;;;;;5048292;28;20029;-56
2021/03/27 03:05:03;;;;;;;1.05;0.57;;;23.10;29.40;;;;;;5055717;28;20029;-53
2021/03/27 03:07:49;;;;;;;1.20;0.50;;;23.10;29.50;;;;;;5053138;28;20041;-53
2021/03/27 03:10:39;;;;;;;0.52;0.32;;;23.10;29.50;;;;;;5055519;28;20029;-59
2021/03/27 03:13:27;;;;;;;0.98;0.40;;;23.10;29.50;;;;;;5055008;28;20051;-56
2021/03/27 03:16:01;;;;;;;1.77;0.70;;;23.00;29.40;;;;;;5053679;28;20406;-59
2021/03/27 03:18:59;;;;;;;0.98;0.50;;;23.00;29.50;;;;;;5055508;28;20083;-58
2021/03/27 03:21:43;;;;;;;0.50;0.40;;;23.00;29.40;;;;;;5050653;28;20044;-60
2021/03/27 03:24:30;;;;;;;1.27;0.55;;;23.00;29.50;;;;;;5054853;28;20070;-57
2021/03/27 03:27:17;;;;;;;0.88;0.38;;;23.00;29.50;;;;;;5055040;28;20160;-58
2021/03/27 03:30:01;;;;;;;0.85;0.40;;;23.00;29.50;;;;;;5048020;28;20052;-59
2021/03/27 03:32:27;;;;;;;0.75;0.50;;;23.00;29.50;;;;;;5054982;28;20112;-59
2021/03/27 03:35:26;;;;;;;1.40;0.40;;;23.00;29.50;;;;;;5055393;28;20115;-57
2021/03/27 03:38:10;;;;;;;0.98;0.65;;;23.00;29.50;;;;;;5048947;28;20122;-59
2021/03/27 03:41:01;;;;;;;0.50;0.40;;;23.00;29.50;;;;;;5054596;28;20035;-57
2021/03/27 03:43:36;;;;;;;1.02;0.60;;;23.00;29.50;;;;;;5054806;28;20120;-59
2021/03/27 03:46:14;;;;;;;0.73;0.50;;;23.00;29.50;;;;;;5054708;28;20052;-56
2021/03/27 03:49:01;;;;;;;0.68;0.55;;;22.90;29.50;;;;;;5053990;28;20061;-57
2021/03/27 03:51:45;;;;;;;1.08;0.63;;;22.90;29.50;;;;;;5054909;28;20028;-60
2021/03/27 03:54:33;;;;;;;0.73;0.45;;;22.90;29.50;;;;;;5054642;28;20407;-59
2021/03/27 03:57:43;;;;;;;1.60;0.70;;;22.90;29.50;;;;;;5033817;28;20039;-56
2021/03/27 04:00:23;;;;;;;1.48;0.68;;;22.90;29.50;;;;;;5050546;28;20487;-57
2021/03/27 04:02:49;;;;;;;1.70;0.60;;;22.90;29.50;;;;;;5055171;28;20033;-60
2021/03/27 04:05:34;;;;;;;1.17;0.70;;;22.90;29.60;;;;;;5053768;28;20407;-55
2021/03/27 04:08:09;;;;;;;1.08;0.60;;;22.90;29.60;;;;;;5054656;28;20040;-56
2021/03/27 04:10:36;;;;;;;4.25;0.80;;;22.90;29.60;;;;;;5054119;28;20040;-58
2021/03/27 04:13:20;;;;;;;1.83;0.80;;;22.90;29.60;;;;;;5053928;28;20444;-56
2021/03/27 04:15:50;;;;;;;0.77;0.65;;;22.90;29.60;;;;;;5046992;28;20025;-55
2021/03/27 04:18:37;;;;;;;1.75;0.80;;;22.90;29.60;;;;;;5054273;28;20036;-57
2021/03/27 04:21:15;;;;;;;0.93;0.65;;;22.90;29.60;;;;;;5053520;28;20037;-56
2021/03/27 04:23:56;;;;;;;1.20;0.60;;;22.90;29.60;;;;;;5050087;28;20049;-56
2021/03/27 04:26:28;;;;;;;1.27;0.60;;;22.90;29.60;;;;;;5053990;28;20043;-59
2021/03/27 04:29:23;;;;;;;2.20;0.82;;;22.90;29.60;;;;;;5053987;28;20464;-60
2021/03/27 04:32:21;;;;;;;2.17;0.88;;;22.90;29.60;;;;;;5047278;28;20040;-58
2021/03/27 04:34:52;;;;;;;1.40;0.65;;;22.90;29.60;;;;;;5034379;28;20085;-58
2021/03/27 04:37:41;;;;;;;1.77;0.65;;;22.90;29.60;;;;;;5051379;28;20033;-58
2021/03/27 04:40:11;;;;;;;1.45;0.73;;;22.90;29.60;;;;;;5054219;28;20049;-57
2021/03/27 04:43:00;;;;;;;1.30;0.60;;;22.80;29.60;;;;;;5054164;28;20033;-57
2021/03/27 04:45:31;;;;;;;1.23;0.70;;;22.80;29.60;;;;;;5053771;28;20072;-56
2021/03/27 04:48:15;;;;;;;0.68;0.40;;;22.80;29.60;;;;;;5050553;28;20103;-57
2021/03/27 04:51:02;;;;;;;1.33;0.70;;;22.80;29.60;;;;;;5053620;28;20339;-57
2021/03/27 04:53:56;;;;;;;1.20;0.70;;;22.80;29.60;;;;;;5053595;28;20033;-58
2021/03/27 04:56:49;;;;;;;1.60;0.60;;;22.80;29.60;;;;;;5054218;28;20033;-57
2021/03/27 04:59:37;;;;;;;1.25;0.70;;;22.80;29.60;;;;;;5032976;28;20041;-58
2021/03/27 05:02:09;;;;;;;2.15;0.90;;;22.80;29.60;;;;;;5047223;28;20071;-57
2021/03/27 05:04:56;;;;;;;2.45;1.00;;;22.80;29.60;;;;;;5055065;28;20448;-60
2021/03/27 05:07:51;;;;;;;2.78;0.60;;;22.80;29.60;;;;;;5057055;28;20423;-57
2021/03/27 05:10:34;;;;;;;1.63;0.82;;;22.80;29.60;;;;;;5023860;28;20364;-57
2021/03/27 05:13:13;;;;;;;0.73;0.53;;;22.80;29.60;;;;;;5056849;28;20029;-60
2021/03/27 05:15:48;;;;;;;2.08;1.02;;;22.80;29.60;;;;;;5057066;28;20172;-58
2021/03/27 05:18:35;;;;;;;3.63;1.05;;;22.80;29.60;;;;;;5057527;28;20017;-56
2021/03/27 05:21:35;;;;;;;1.98;1.00;;;22.80;29.60;;;;;;5057252;28;20107;-58
2021/03/27 05:24:45;;;;;;;2.17;0.77;;;22.80;29.60;;;;;;5037769;28;20425;-58
2021/03/27 05:27:35;;;;;;;2.08;0.80;;;22.80;29.60;;;;;;4965602;28;20474;-59
2021/03/27 05:30:39;;;;;;;1.73;0.80;;;22.70;29.60;;;;;;5034933;28;20049;-57
2021/03/27 05:33:35;;;;;;;1.75;0.70;;;22.80;29.60;;;;;;5056742;28;20029;-57
2021/03/27 05:36:28;;;;;;;1.60;0.90;;;22.70;29.60;;;;;;5056968;28;20029;-53
2021/03/27 05:39:12;;;;;;;1.35;0.73;;;22.70;29.60;;;;;;5057211;28;20052;-60
2021/03/27 05:42:03;;;;;;;1.80;0.73;;;22.70;29.60;;;;;;5056074;28;20410;-57
2021/03/27 05:44:40;;;;;;;1.15;0.60;;;22.70;29.60;;;;;;5001099;28;20468;-56
2021/03/27 05:47:27;;;;;;;1.00;0.52;;;22.70;29.60;;;;;;5055921;28;20112;-59
2021/03/27 05:50:11;;;;;;;1.63;0.60;;;22.70;29.50;;;;;;5056587;28;20037;-56
2021/03/27 05:52:40;;;;;;;2.08;0.77;;;22.70;29.50;;;;;;5037078;28;20475;-57
2021/03/27 05:55:34;;;;;;;1.17;0.70;;;22.70;29.50;;;;;;5053938;28;20029;-58
2021/03/27 05:58:26;;;;;;;1.77;0.90;;;22.70;29.50;;;;;;5056459;28;20052;-56
2021/03/27 06:01:26;;;;;;;2.13;0.80;;;22.70;29.50;;;;;;5054507;28;20036;-56
2021/03/27 06:04:28;;;;;;;2.13;0.80;;;22.70;29.50;;;;;;5055770;28;20033;-57
2021/03/27 06:07:12;;;;;;;1.45;0.73;;;22.70;29.50;;;;;;5056946;28;20044;-59
2021/03/27 06:10:02;;;;;;;0.60;0.50;;;22.60;29.40;;;;;;5055583;28;20025;-60
2021/03/27 06:13:08;;;;;;;1.10;0.80;;;22.60;29.40;;;;;;5053454;28;20029;-57
2021/03/27 06:15:52;;;;;;;;;;;22.60;29.40;;;;;;5056954;28;20064;-56
2021/03/27 06:18:47;;;;;;;2.90;0.77;;;22.60;29.50;;;;;;5053612;28;19962;-49
2021/03/27 06:21:37;;;;;;;1.33;0.70;;;22.60;29.50;;;;;;5048628;28;20017;-51
2021/03/27 06:24:20;;;;;;;2.00;0.80;;;22.60;29.50;;;;;;5056686;28;20127;-51
2021/03/27 06:27:11;;;;;;;1.58;0.77;;;22.60;29.50;;;;;;5057433;28;20029;-53
2021/03/27 06:29:55;;;;;;;1.77;0.90;;;22.60;29.50;;;;;;5056007;28;20040;-53
2021/03/27 06:32:50;;;;;;;3.00;0.90;;;22.60;29.50;;;;;;5057075;28;20033;-57
2021/03/27 06:35:36;;;;;;;1.33;0.73;;;22.60;29.40;;;;;;5055277;28;20021;-60
2021/03/27 06:38:16;;;;;;;1.23;0.63;;;22.60;29.30;;;;;;5040349;28;20025;-58
2021/03/27 06:41:01;;;;;;;2.13;0.75;;;22.50;29.30;;;;;;5056093;28;20048;-56
2021/03/27 06:43:44;;;;;;;1.52;0.75;;;22.50;29.20;;;;;;5055465;28;20357;-60
2021/03/27 06:46:19;;;;;;;1.55;0.63;;;22.50;29.20;;;;;;5055856;28;20493;-59
2021/03/27 06:49:06;;;;;;;1.27;0.70;;;22.50;29.20;;;;;;5055303;28;20104;-59
2021/03/27 06:52:20;;;;;;;2.38;0.90;;;22.50;29.10;;;;;;5054874;28;20040;-55
2021/03/27 06:55:26;;;;;;;2.33;0.68;;;22.50;29.10;;;;;;4967186;28;20039;-53
2021/03/27 06:58:15;;;;;;;1.10;0.60;;;22.50;29.10;;;;;;5045309;28;20037;-53
2021/03/27 07:01:22;;;;;;;0.85;0.60;;;22.50;29.10;;;;;;4992841;28;20045;-52
2021/03/27 07:04:25;;;;;;;2.08;0.75;;;22.50;29.10;;;;;;5048475;28;20039;-54
2021/03/27 07:07:12;;;;;;;2.40;1.25;;;22.50;29.10;;;;;;5056101;28;20029;-61
2021/03/27 07:09:56;;;;;;;0.75;0.50;;;22.50;29.10;;;;;;5054624;28;20037;-57
2021/03/27 07:12:46;;;;;;;0.98;0.68;;;22.50;29.00;;;;;;5055500;28;20021;-54
2021/03/27 07:15:53;;;;;;;1.40;0.55;;;22.50;29.00;;;;;;5055382;28;20033;-60
2021/03/27 07:18:46;;;;;;;1.25;0.60;;;22.50;29.50;;;;;;5055075;28;20111;-58
2021/03/27 07:21:46;;;;;;;1.15;0.50;;;22.50;29.00;;;;;;5055513;28;20032;-57
2021/03/27 07:24:46;;;;;;;1.55;0.80;;;22.50;29.00;;;;;;5054926;28;20371;-60
2021/03/27 07:27:49;;;;;;;1.95;0.68;;;22.50;29.00;;;;;;5052434;28;20078;-56
2021/03/27 07:30:48;;;;;;;1.55;0.60;;;22.50;29.00;;;;;;5037744;28;20349;-55
2021/03/27 07:33:46;;;;;;;1.88;0.65;;;22.50;29.00;;;;;;5053427;28;20044;-55
2021/03/27 07:36:42;;;;;;;1.33;0.40;;;22.50;29.10;;;;;;5055070;28;20112;-55
2021/03/27 07:39:33;;;;;;;1.75;0.60;;;22.50;29.20;;;;;;5054492;28;20060;-58
2021/03/27 07:42:24;;;;;;;3.97;0.60;;;22.60;29.20;;;;;;5051534;28;20060;-54
2021/03/27 07:45:02;;;;;;;1.65;0.70;;;22.60;29.20;;;;;;5054682;28;20462;-59
2021/03/27 07:47:50;;;;;;;2.10;0.57;;;22.60;29.10;;;;;;5049927;28;20033;-61
2021/03/27 07:50:49;;;;;;;0.85;0.50;;;22.70;29.10;;;;;;5054289;28;20021;-57
2021/03/27 07:53:42;;;;;;;1.73;0.70;;;22.70;29.00;;;;;;5054387;28;20029;-58
2021/03/27 07:56:45;;;;;;;1.88;0.60;;;22.70;28.90;;;;;;5053722;28;20052;-55
2021/03/27 07:59:22;;;;;;;1.45;0.55;;;22.80;28.90;;;;;;5052110;28;20329;-58
2021/03/27 08:02:03;;;;;;;1.95;0.70;;;22.80;28.90;;;;;;5054168;28;20037;-58
2021/03/27 08:05:02;;;;;;;1.73;0.68;;;22.80;28.90;;;;;;5052461;28;20182;-57
2021/03/27 08:07:52;;;;;;;2.40;1.13;;;22.80;28.90;;;;;;5034147;28;20504;-59
2021/03/27 08:10:30;;;;;;;1.75;0.75;;;22.90;29.00;;;;;;5052761;28;20111;-54
2021/03/27 08:13:30;;;;;;;1.98;0.65;;;22.90;29.00;;;;;;5047569;28;20033;-56
2021/03/27 08:16:20;;;;;;;1.85;0.80;;;22.90;28.90;;;;;;5052818;28;20033;-60
2021/03/27 08:19:09;;;;;;;1.63;0.73;;;23.00;29.00;;;;;;5053080;28;20043;-58
2021/03/27 08:22:07;;;;;;;2.33;0.88;;;23.00;29.40;;;;;;5047356;28;20021;-54
2021/03/27 08:24:58;;;;;;;1.65;0.85;;;23.10;29.00;;;;;;5038472;28;20186;-54
2021/03/27 08:27:47;;;;;;;2.58;0.95;;;23.10;29.00;;;;;;5049817;28;20467;-56
2021/03/27 08:30:35;;;;;;;2.47;0.80;;;23.20;29.10;;;;;;5052748;28;20035;-54
2021/03/27 08:33:22;;;;;;;1.73;0.70;;;23.20;29.10;;;;;;5052266;28;20037;-55
2021/03/27 08:35:48;;;;;;;3.35;1.10;;;23.30;29.20;;;;;;5051852;28;20024;-57
2021/03/27 08:38:28;;;;;;;2.05;0.88;;;23.30;29.20;;;;;;5051223;28;20047;-56
2021/03/27 08:41:09;;;;;;;2.33;0.80;;;23.40;29.30;;;;;;5050414;28;20111;-58
2021/03/27 08:43:50;;;;;;;3.30;0.82;;;23.50;29.30;;;;;;5052744;28;20033;-57
2021/03/27 08:46:37;;;;;;;2.13;0.70;;;23.60;29.30;;;;;;5049306;28;20029;-55
2021/03/27 08:49:20;;;;;;;2.03;0.73;;;23.60;29.20;;;;;;5051847;28;20055;-55
2021/03/27 08:52:09;;;;;;;1.42;0.70;;;23.70;29.10;;;;;;5050564;28;20043;-58
2021/03/27 08:54:53;;;;;;;2.58;0.88;;;23.70;29.00;;;;;;5047568;28;20025;-56
2021/03/27 08:57:34;;;;;;;0.90;0.47;;;23.80;29.00;;;;;;5050600;28;20039;-56
2021/03/27 09:00:11;;;;;;;1.55;0.77;;;23.80;28.90;;;;;;5051813;28;20048;-57
2021/03/27 09:02:45;;;;;;;1.80;0.70;;;23.90;28.80;;;;;;5049695;28;20053;-59
2021/03/27 09:05:33;;;;;;;;;;;23.90;28.70;;;;;;5052435;28;20107;-59
2021/03/27 09:08:23;;;;;;;2.92;0.85;;;23.90;28.70;;;;;;5051354;28;20225;-56
2021/03/27 09:11:12;;;;;;;1.33;0.50;;;24.00;28.50;;;;;;5037218;28;20567;-60
2021/03/27 09:14:00;;;;;;;1.23;0.50;;;24.00;28.40;;;;;;5051234;28;20051;-55
2021/03/27 09:16:41;;;;;;;1.48;0.70;;;24.00;28.30;;;;;;5051490;28;20064;-60
2021/03/27 09:19:29;;;;;;;2.00;0.70;;;24.10;28.20;;;;;;5050682;28;20132;-58
2021/03/27 09:22:37;;;;;;;1.65;0.52;;;24.10;28.20;;;;;;5040453;28;20029;-57
2021/03/27 09:25:09;;;;;;;1.88;0.70;;;24.10;28.10;;;;;;4999982;28;20523;-57
2021/03/27 09:28:12;;;;;;;1.15;0.60;;;24.10;28.10;;;;;;5031663;28;20399;-57
2021/03/27 09:31:13;;;;;;;1.45;0.57;;;24.10;28.00;;;;;;5013070;28;20048;-59
2021/03/27 09:33:51;;;;;;;1.67;0.63;;;24.10;28.00;;;;;;4995248;28;20107;-59
2021/03/27 09:36:48;;;;;;;1.60;0.52;;;24.10;28.10;;;;;;5029437;28;20409;-54
2021/03/27 09:39:36;;;;;;;2.08;0.60;;;24.10;28.10;;;;;;5012302;28;20037;-56
2021/03/27 09:42:05;;;;;;;1.63;0.63;;;24.20;28.20;;;;;;5031561;28;20029;-53
2021/03/27 09:44:42;;;;;;;0.85;0.55;;;24.10;28.20;;;;;;5032466;28;20102;-49
2021/03/27 09:47:10;;;;;;;2.00;0.63;;;24.20;28.20;;;;;;5012985;28;20049;-55
2021/03/27 09:50:14;;;;;;;1.52;0.70;;;24.20;28.20;;;;;;5031555;28;20034;-54
2021/03/27 09:52:58;;;;;;;1.75;0.50;;;24.20;28.20;;;;;;5034814;28;20037;-55
2021/03/27 09:55:40;;;;;;;1.27;0.70;;;24.20;28.20;;;;;;5035330;28;20037;-55
2021/03/27 09:58:36;;;;;;;1.95;0.70;;;24.20;28.10;;;;;;5034740;28;20091;-57
2021/03/27 10:01:11;;;;;;;1.55;0.60;;;24.20;28.10;;;;;;5016871;28;20376;-54
2021/03/27 10:03:52;;;;;;;2.20;0.80;;;24.20;28.20;;;;;;5033619;28;20033;-55
2021/03/27 10:06:40;;;;;;;1.35;0.57;;;24.10;28.20;;;;;;5033324;28;20116;-53
2021/03/27 10:09:14;;;;;;;2.05;0.70;;;24.10;28.30;;;;;;5035571;28;20090;-56
2021/03/27 10:11:42;;;;;;;1.42;0.98;;;24.10;28.20;;;;;;5033540;28;20091;-52
2021/03/27 10:14:27;;;;;;;2.75;0.88;;;24.10;28.20;;;;;;5034690;28;20112;-55
2021/03/27 10:17:05;;;;;;;2.03;0.60;;;24.20;28.10;;;;;;5035367;28;20029;-57
2021/03/27 10:20:00;;;;;;;2.17;0.63;;;24.20;28.10;;;;;;5033993;28;20045;-54
2021/03/27 10:22:49;;;;;;;1.77;0.77;;;24.20;28.10;;;;;;5032001;28;20053;-53
2021/03/27 10:26:03;;;;;;;1.55;0.63;;;24.10;28.10;;;;;;5054671;28;20102;-49
2021/03/27 10:28:33;;;;;;;1.65;0.73;;;24.10;28.10;;;;;;4958625;28;20038;-51
2021/03/27 10:31:15;;;;;;;2.30;0.65;;;24.10;28.10;;;;;;4972895;28;20084;-54
2021/03/27 10:34:02;;;;;;;1.52;0.50;;;24.10;28.00;;;;;;5022175;28;20047;-57
2021/03/27 10:36:39;;;;;;;1.48;0.70;;;24.10;27.90;;;;;;5054156;28;20040;-57
2021/03/27 10:39:12;;;;;;;1.55;0.57;;;24.10;27.80;;;;;;5054640;28;20037;-52
2021/03/27 10:41:38;;;;;;;0.65;0.45;;;24.10;27.70;;;;;;5055470;28;20356;-53
2021/03/27 10:44:41;;;;;;;1.60;0.70;;;24.00;27.60;;;;;;5054324;28;20032;-54
2021/03/27 10:47:15;;;;;;;1.13;0.60;;;24.00;27.40;;;;;;5052166;28;20432;-54
2021/03/27 10:50:02;;;;;;;;;;;24.00;27.30;;;;;;5054808;28;20029;-59
2021/03/27 10:52:36;;;;;;;1.48;0.60;;;24.00;27.40;;;;;;5053993;28;20275;-51
2021/03/27 10:55:39;;;;;;;3.35;0.63;;;23.90;27.30;;;;;;5051563;28;20059;-58
2021/03/27 10:58:23;;;;;;;2.63;0.73;;;23.90;27.30;;;;;;5054419;28;20036;-60
2021/03/27 11:00:57;;;;;;;1.67;0.60;;;23.90;27.30;;;;;;5053550;28;20424;-62
2021/03/27 11:03:47;;;;;;;2.00;0.60;;;23.90;27.30;;;;;;5051217;28;20306;-53
2021/03/27 11:06:43;;;;;;;1.73;0.68;;;23.90;27.20;;;;;;5053454;28;20348;-57
2021/03/27 11:09:46;;;;;;;1.13;0.50;;;24.00;27.70;;;;;;5052751;28;20025;-50
2021/03/27 11:12:48;;;;;;;1.83;0.57;;;23.90;27.10;;;;;;5053635;28;20468;-60
2021/03/27 11:15:19;;;;;;;1.60;0.55;;;23.90;27.00;;;;;;5053730;28;20025;-57
2021/03/27 11:17:53;;;;;;;2.90;0.80;;;23.90;27.00;;;;;;5051447;28;20044;-61
2021/03/27 11:20:40;;;;;;;1.83;0.50;;;23.90;26.90;;;;;;5051044;28;20040;-59
2021/03/27 11:23:39;;;;;;;1.85;0.70;;;23.90;26.80;;;;;;5042159;28;20033;-59
2021/03/27 11:26:26;;;;;;;1.60;0.60;;;23.90;26.80;;;;;;5053554;28;20390;-57
2021/03/27 11:28:58;;;;;;;1.58;0.57;;;23.90;26.80;;;;;;5051630;28;20029;-58
2021/03/27 11:31:33;;;;;;;1.17;0.55;;;23.90;26.80;;;;;;5053738;28;20037;-59
2021/03/27 11:34:35;;;;;;;2.80;0.75;;;23.90;26.70;;;;;;5052089;28;20440;-61
2021/03/27 11:37:25;;;;;;;3.55;0.50;;;23.90;26.60;;;;;;4983451;28;20041;-57
2021/03/27 11:39:54;;;;;;;1.02;0.57;;;23.90;26.60;;;;;;5052708;28;20029;-58
2021/03/27 11:42:28;;;;;;;1.10;0.60;;;23.80;26.60;;;;;;5030916;28;20034;-58
2021/03/27 11:45:04;;;;;;;1.08;0.43;;;23.80;26.60;;;;;;5030968;28;20132;-61
2021/03/27 11:47:38;;;;;;;1.58;0.60;;;23.80;26.60;;;;;;5025779;28;20393;-52
2021/03/27 11:50:09;;;;;;;2.10;0.80;;;23.80;26.60;;;;;;5031423;28;20112;-58
2021/03/27 11:53:20;;;;;;;1.67;0.57;;;23.70;26.60;;;;;;5030635;28;20092;-58
2021/03/27 11:56:16;;;;;;;3.38;0.60;;;23.80;26.60;;;;;;5029927;28;20453;-55
2021/03/27 12:02:12;;;;;;;0.65;0.40;;;23.80;26.60;;;;;;5027691;28;20088;-52
2021/03/27 12:04:38;;;;;;;;;;;23.80;26.70;;;;;;5029476;28;20046;-58
2021/03/27 12:07:11;;;;;;;0.95;0.30;;;23.80;26.70;;;;;;5028933;28;19909;-55
2021/03/27 12:09:46;;;;;;;1.63;0.60;;;23.80;26.80;;;;;;5030951;28;20037;-58
2021/03/27 12:12:49;;;;;;;1.40;0.60;;;23.90;26.80;;;;;;5029201;28;20064;-57
2021/03/27 12:15:26;;;;;;;1.80;0.77;;;23.90;26.80;;;;;;5019735;28;20079;-56
2021/03/27 12:18:23;;;;;;;1.45;0.50;;;23.90;26.90;;;;;;5050159;28;20023;-58
2021/03/27 12:21:06;;;;;;;1.38;0.60;;;24.00;26.90;;;;;;5038150;28;20159;-52
2021/03/27 12:23:37;;;;;;;1.65;0.60;;;24.00;27.00;;;;;;5051657;28;20126;-53
2021/03/27 12:26:48;;;;;;;1.50;0.60;;;24.00;27.00;;;;;;5051835;28;20032;-51
2021/03/27 12:29:25;;;;;;;1.30;0.52;;;24.00;26.90;;;;;;5043974;28;20349;-47
2021/03/27 12:32:09;;;;;;;1.35;0.60;;;24.00;26.90;;;;;;5052004;28;20024;-58
2021/03/27 12:34:46;;;;;;;1.15;0.43;;;24.00;26.90;;;;;;5051866;28;20028;-55
2021/03/27 12:37:35;;;;;;;2.40;0.52;;;24.00;26.90;;;;;;5052250;28;20028;-56
2021/03/27 12:40:01;;;;;;;1.30;0.50;;;24.00;26.90;;;;;;5038408;28;20049;-53
2021/03/27 12:42:56;;;;;;;1.98;0.70;;;24.00;27.00;;;;;;5051903;28;20060;-52
2021/03/27 12:45:29;;;;;;;2.00;0.70;;;24.00;27.10;;;;;;5051776;28;20119;-56
2021/03/27 12:48:19;;;;;;;1.08;0.43;;;24.10;27.40;;;;;;5052496;28;20110;-63
2021/03/27 12:50:57;;;;;;;1.65;0.60;;;24.10;27.60;;;;;;5052522;28;20029;-55
2021/03/27 12:53:42;;;;;;;2.50;0.60;;;24.10;27.70;;;;;;5052136;28;20362;-49
2021/03/27 12:56:28;;;;;;;1.38;0.60;;;24.10;27.80;;;;;;5052528;28;20036;-53
2021/03/27 12:59:16;;;;;;;1.42;0.50;;;24.10;27.80;;;;;;5051444;28;20044;-52
2021/03/27 13:02:09;;;;;;;1.58;0.50;;;24.20;27.80;;;;;;5049405;28;20047;-49
2021/03/27 13:05:02;;;;;;;2.22;0.80;;;24.20;27.80;;;;;;5051794;28;20040;-55
2021/03/27 13:08:07;;;;;;;1.30;0.60;;;24.20;27.80;;;;;;5051934;28;20028;-53
2021/03/27 13:11:07;;;;;;;1.27;0.50;;;24.30;27.80;;;;;;5051101;28;20025;-56
2021/03/27 13:13:34;;;;;;;1.98;0.60;;;24.30;27.70;;;;;;5040883;28;20063;-47
2021/03/27 13:16:22;;;;;;;1.55;0.50;;;24.20;27.70;;;;;;5052153;28;20037;-46
2021/03/27 13:19:12;;;;;;;1.40;0.60;;;24.30;27.70;;;;;;5049515;28;20037;-52
2021/03/27 13:21:59;;;;;;;1.35;0.57;;;24.30;27.60;;;;;;5051686;28;20443;-60
2021/03/27 13:24:34;;;;;;;1.95;0.70;;;24.20;27.60;;;;;;5028044;28;20126;-59
2021/03/27 13:27:14;;;;;;;1.58;0.68;;;24.20;27.50;;;;;;5015104;28;20126;-58
2021/03/27 13:29:46;;;;;;;1.55;0.63;;;24.20;27.40;;;;;;5027351;28;20165;-56
2021/03/27 13:32:15;;;;;;;0.95;0.55;;;24.10;27.40;;;;;;5032068;28;20037;-57
2021/03/27 13:35:02;;;;;;;2.17;0.68;;;24.20;27.40;;;;;;5035215;28;20056;-56
2021/03/27 13:37:44;;;;;;;1.63;0.70;;;24.10;27.50;;;;;;5029235;28;20117;-54
2021/03/27 13:40:18;;;;;;;2.67;1.10;;;24.10;27.50;;;;;;5021770;28;20038;-54
2021/03/27 13:42:50;;;;;;;;;;;24.10;27.50;;;;;;5027262;28;20030;-57
2021/03/27 13:45:32;;;;;;;1.90;0.68;;;24.10;27.60;;;;;;5027471;28;19913;-58
2021/03/27 13:48:02;;;;;;;2.50;0.60;;;24.10;28.00;;;;;;5019637;28;20037;-59
2021/03/27 13:50:40;;;;;;;2.13;0.98;;;24.10;28.00;;;;;;5026904;28;20029;-60
2021/03/27 13:53:18;;;;;;;1.60;0.80;;;24.10;27.50;;;;;;5018592;28;20025;-58
2021/03/27 13:55:54;;;;;;;2.08;0.68;;;24.00;27.40;;;;;;5022849;28;20038;-59
2021/03/27 13:58:21;;;;;;;1.90;0.93;;;24.00;27.30;;;;;;5024451;28;20041;-60
2021/03/27 14:00:58;;;;;;;2.10;0.80;;;24.10;27.40;;;;;;5035548;28;20461;-53
2021/03/27 14:04:03;;;;;;;1.85;0.88;;;24.10;27.40;;;;;;5016157;28;20018;-59
2021/03/27 14:06:59;;;;;;;1.70;0.90;;;24.10;27.40;;;;;;5023654;28;20026;-56
2021/03/27 14:09:37;;;;;;;2.13;0.75;;;24.10;27.30;;;;;;5017824;28;20037;-55
2021/03/27 14:12:26;;;;;;;1.42;0.73;;;24.10;27.20;;;;;;5020688;28;20389;-58
2021/03/27 14:15:01;;;;;;;1.67;0.95;;;24.10;27.10;;;;;;5010838;28;20060;-61
2021/03/27 14:17:51;;;;;;;2.33;1.13;;;24.10;27.10;;;;;;5027706;28;20052;-59
2021/03/27 14:20:45;;;;;;;2.88;1.25;;;24.00;27.00;;;;;;5032967;28;20103;-60
2021/03/27 14:23:31;;;;;;;2.33;1.30;;;24.10;27.00;;;;;;5041974;28;20049;-61